createdAt,value
2023-10-09T00:00:34.319Z,18.70
2023-10-09T00:02:37.889Z,18.60
2023-10-09T00:04:43.601Z,18.60
2023-10-09T00:06:48.083Z,18.70
2023-10-09T00:08:55.769Z,18.70
2023-10-09T00:11:14.851Z,18.70
2023-10-09T00:13:17.592Z,18.80
2023-10-09T00:15:22.185Z,18.80
2023-10-09T00:17:32.597Z,18.80
2023-10-09T00:19:38.345Z,18.80
2023-10-09T00:21:41.879Z,18.80
2023-10-09T00:23:45.473Z,18.80
2023-10-09T00:26:11.060Z,18.80
2023-10-09T00:28:20.039Z,18.80
2023-10-09T00:30:31.137Z,18.80
2023-10-09T00:32:38.109Z,18.80
2023-10-09T00:34:42.249Z,18.80
2023-10-09T00:36:52.276Z,18.80
2023-10-09T00:38:56.251Z,18.80
2023-10-09T00:41:11.199Z,18.70
2023-10-09T00:43:16.293Z,18.70
2023-10-09T00:45:28.952Z,18.70
2023-10-09T00:47:36.182Z,18.70
2023-10-09T00:49:42.868Z,18.70
2023-10-09T00:51:57.811Z,18.70
2023-10-09T00:54:08.914Z,18.70
2023-10-09T00:56:20.246Z,18.70
2023-10-09T00:58:28.314Z,18.70
2023-10-09T01:00:47.050Z,18.60
2023-10-09T01:03:11.412Z,18.60
2023-10-09T01:05:21.478Z,18.60
2023-10-09T01:07:27.301Z,18.60
2023-10-09T01:09:31.029Z,18.50
2023-10-09T01:11:35.992Z,18.50
2023-10-09T01:13:53.736Z,18.40
2023-10-09T01:15:59.825Z,18.30
2023-10-09T01:18:03.396Z,18.30
2023-10-09T01:20:17.714Z,18.30
2023-10-09T01:22:23.355Z,18.30
2023-10-09T01:24:29.406Z,18.30
2023-10-09T01:26:35.204Z,18.30
2023-10-09T01:28:39.636Z,18.30
2023-10-09T01:30:43.127Z,18.30
2023-10-09T01:32:47.451Z,18.30
2023-10-09T01:34:51.818Z,18.30
2023-10-09T01:36:57.245Z,18.30
2023-10-09T01:39:01.283Z,18.30
2023-10-09T01:41:09.224Z,18.30
2023-10-09T01:43:12.655Z,18.30
2023-10-09T01:45:29.764Z,18.30
2023-10-09T01:47:33.897Z,18.40
2023-10-09T01:49:38.455Z,18.40
2023-10-09T01:51:42.650Z,18.40
2023-10-09T01:53:48.963Z,18.40
2023-10-09T01:55:56.832Z,18.50
2023-10-09T01:58:16.372Z,18.50
2023-10-09T02:00:25.370Z,18.50
2023-10-09T02:02:29.042Z,18.50
2023-10-09T02:04:32.721Z,18.50
2023-10-09T02:06:39.256Z,18.50
2023-10-09T02:08:50.385Z,18.50
2023-10-09T02:10:57.133Z,18.50
2023-10-09T02:13:08.110Z,18.50
2023-10-09T02:15:17.018Z,18.50
2023-10-09T02:17:21.655Z,18.50
2023-10-09T02:19:32.908Z,18.50
2023-10-09T02:21:41.546Z,18.40
2023-10-09T02:23:51.067Z,18.20
2023-10-09T02:25:58.774Z,18.20
2023-10-09T02:28:07.141Z,18.20
2023-10-09T02:30:16.850Z,18.20
2023-10-09T02:32:27.124Z,18.20
2023-10-09T02:34:39.458Z,18.30
2023-10-09T02:36:50.805Z,18.30
2023-10-09T02:38:57.841Z,18.40
2023-10-09T02:41:19.511Z,18.40
2023-10-09T02:43:26.738Z,18.40
2023-10-09T02:45:37.673Z,18.40
2023-10-09T02:47:41.438Z,18.50
2023-10-09T02:49:44.848Z,18.50
2023-10-09T02:51:54.265Z,18.50
2023-10-09T02:53:57.449Z,18.50
2023-10-09T02:56:14.264Z,18.60
2023-10-09T02:58:22.317Z,18.60
2023-10-09T03:00:31.134Z,18.70
2023-10-09T03:02:34.687Z,18.70
2023-10-09T03:04:40.439Z,18.80
2023-10-09T03:06:51.251Z,18.80
2023-10-09T03:08:56.009Z,18.80
2023-10-09T03:11:01.485Z,18.80
2023-10-09T03:13:06.638Z,18.70
2023-10-09T03:15:12.703Z,18.70
2023-10-09T03:17:18.206Z,18.60
2023-10-09T03:19:21.638Z,18.50
2023-10-09T03:21:25.082Z,18.50
2023-10-09T03:23:27.656Z,18.40
2023-10-09T03:25:31.855Z,18.40
2023-10-09T03:27:35.658Z,18.40
2023-10-09T03:29:39.643Z,18.40
2023-10-09T03:31:44.497Z,18.30
2023-10-09T03:33:49.591Z,18.30
2023-10-09T03:35:53.235Z,18.30
2023-10-09T03:38:01.365Z,18.30
2023-10-09T03:40:08.318Z,18.20
2023-10-09T03:42:20.703Z,18.20
2023-10-09T03:44:24.375Z,18.20
2023-10-09T03:46:34.500Z,18.20
2023-10-09T03:48:38.196Z,18.20
2023-10-09T03:50:44.774Z,18.20
2023-10-09T03:52:47.190Z,18.20
2023-10-09T03:54:50.953Z,18.20
2023-10-09T03:56:56.123Z,18.20
2023-10-09T03:58:59.598Z,18.20
2023-10-09T04:01:04.851Z,18.20
2023-10-09T04:03:08.420Z,18.20
2023-10-09T04:05:12.524Z,18.20
2023-10-09T04:07:18.880Z,18.20
2023-10-09T04:09:37.189Z,18.10
2023-10-09T04:11:43.981Z,18.10
2023-10-09T04:13:48.532Z,18.10
2023-10-09T04:15:54.192Z,18.10
2023-10-09T04:17:58.336Z,18.10
2023-10-09T04:20:15.887Z,18.10
2023-10-09T04:22:28.689Z,18.10
2023-10-09T04:24:42.471Z,18.20
2023-10-09T04:26:46.121Z,18.20
2023-10-09T04:28:53.168Z,18.20
2023-10-09T04:30:57.469Z,18.20
2023-10-09T04:33:05.803Z,18.30
2023-10-09T04:35:26.135Z,18.20
2023-10-09T04:37:39.421Z,18.20
2023-10-09T04:39:48.371Z,18.30
2023-10-09T04:42:00.850Z,18.20
2023-10-09T04:44:20.798Z,18.20
2023-10-09T04:46:28.219Z,18.20
2023-10-09T04:48:39.740Z,18.20
2023-10-09T04:51:09.019Z,18.20
2023-10-09T04:53:24.741Z,18.20
2023-10-09T04:55:28.600Z,18.20
2023-10-09T04:57:39.120Z,18.20
2023-10-09T04:59:49.741Z,18.20
2023-10-09T05:02:00.272Z,18.20
2023-10-09T05:04:05.778Z,18.20
2023-10-09T05:06:23.123Z,18.20
2023-10-09T05:08:30.218Z,18.30
2023-10-09T05:10:33.838Z,18.20
2023-10-09T05:12:42.527Z,18.20
2023-10-09T05:15:08.054Z,18.20
2023-10-09T05:17:17.202Z,18.30
2023-10-09T05:19:35.085Z,18.20
2023-10-09T05:21:45.716Z,18.20
2023-10-09T05:24:11.115Z,18.20
2023-10-09T05:26:38.685Z,18.30
2023-10-09T05:28:54.020Z,18.20
2023-10-09T05:31:03.917Z,18.30
2023-10-09T05:33:21.467Z,18.30
2023-10-09T05:35:40.977Z,18.20
2023-10-09T05:37:47.185Z,18.20
2023-10-09T05:40:20.647Z,18.20
2023-10-09T05:42:29.832Z,18.30
2023-10-09T05:44:51.096Z,18.30
2023-10-09T05:47:23.969Z,18.30
2023-10-09T05:49:46.659Z,18.30
2023-10-09T05:52:15.741Z,18.30
2023-10-09T05:54:40.138Z,18.40
2023-10-09T05:57:03.084Z,18.40
2023-10-09T05:59:24.029Z,18.40
2023-10-09T06:01:57.676Z,18.40
2023-10-09T06:04:16.782Z,18.40
2023-10-09T06:06:34.392Z,18.40
2023-10-09T06:09:09.953Z,18.30
2023-10-09T06:11:28.105Z,18.30
2023-10-09T06:13:46.954Z,18.40
2023-10-09T06:16:10.991Z,18.40
2023-10-09T06:18:33.795Z,18.30
2023-10-09T06:21:11.474Z,18.30
2023-10-09T06:23:18.285Z,18.40
2023-10-09T06:25:20.856Z,18.40
2023-10-09T06:27:46.757Z,18.40
2023-10-09T06:30:13.832Z,18.50
2023-10-09T06:32:38.525Z,18.50
2023-10-09T06:34:46.755Z,18.50
2023-10-09T06:36:55.331Z,18.50
2023-10-09T06:39:29.842Z,18.50
2023-10-09T06:41:39.021Z,18.50
2023-10-09T06:43:49.184Z,18.50
2023-10-09T06:45:57.025Z,18.60
2023-10-09T06:48:09.473Z,18.60
2023-10-09T06:50:49.132Z,18.60
2023-10-09T06:53:17.907Z,18.50
2023-10-09T06:55:35.021Z,18.60
2023-10-09T06:57:50.482Z,18.60
2023-10-09T07:00:08.414Z,18.60
2023-10-09T07:02:30.652Z,18.60
2023-10-09T07:04:48.414Z,18.60
2023-10-09T07:06:52.693Z,18.70
2023-10-09T07:09:17.416Z,18.70
2023-10-09T07:11:23.249Z,18.70
2023-10-09T07:13:28.604Z,18.80
2023-10-09T07:15:50.723Z,18.80
2023-10-09T07:17:57.284Z,18.80
2023-10-09T07:20:14.486Z,18.80
2023-10-09T07:22:26.482Z,18.90
2023-10-09T07:24:39.531Z,18.90
2023-10-09T07:26:49.161Z,18.90
2023-10-09T07:29:02.353Z,19.00
2023-10-09T07:31:11.407Z,19.00
2023-10-09T07:33:19.725Z,19.10
2023-10-09T07:35:46.852Z,19.10
2023-10-09T07:37:52.276Z,19.20
2023-10-09T07:39:59.904Z,19.20
2023-10-09T07:42:20.141Z,19.20
2023-10-09T07:44:39.207Z,19.20
2023-10-09T07:46:54.200Z,19.30
2023-10-09T07:48:58.872Z,19.30
2023-10-09T07:51:06.736Z,19.30
2023-10-09T07:53:28.563Z,19.30
2023-10-09T07:55:42.035Z,19.30
2023-10-09T07:57:53.483Z,19.30
2023-10-09T08:00:05.141Z,19.40
2023-10-09T08:02:14.672Z,19.40
2023-10-09T08:04:21.969Z,19.50
2023-10-09T08:07:02.832Z,19.60
2023-10-09T08:09:40.282Z,19.70
2023-10-09T08:11:58.776Z,19.80
2023-10-09T08:14:22.214Z,19.90
2023-10-09T08:16:38.143Z,20.00
2023-10-09T08:18:46.528Z,20.10
2023-10-09T08:21:14.039Z,20.20
2023-10-09T08:23:30.566Z,20.20
2023-10-09T08:25:37.586Z,20.30
2023-10-09T08:27:55.952Z,20.20
2023-10-09T08:30:14.002Z,20.20
2023-10-09T08:37:03.266Z,20.20
2023-10-09T08:39:18.335Z,20.20
2023-10-09T08:41:26.793Z,20.20
2023-10-09T08:43:32.611Z,20.20
2023-10-09T08:45:36.809Z,20.30
2023-10-09T08:47:41.352Z,20.40
2023-10-09T08:49:45.201Z,20.50
2023-10-09T08:51:49.838Z,20.60
2023-10-09T08:53:54.317Z,20.70
2023-10-09T08:55:58.410Z,20.80
2023-10-09T08:58:07.246Z,20.80
2023-10-09T09:00:13.628Z,20.90
2023-10-09T09:02:18.896Z,21.00
2023-10-09T09:04:40.344Z,21.10
2023-10-09T09:06:45.064Z,21.20
2023-10-09T09:08:49.699Z,21.40
2023-10-09T09:10:59.729Z,21.60
2023-10-09T09:13:05.267Z,21.70
2023-10-09T09:15:20.039Z,21.90
2023-10-09T09:17:32.165Z,21.90
2023-10-09T09:19:39.556Z,21.90
2023-10-09T09:21:46.312Z,21.80
2023-10-09T09:24:18.575Z,21.70
2023-10-09T09:26:39.250Z,21.70
2023-10-09T09:28:56.655Z,21.60
2023-10-09T09:31:14.731Z,21.60
2023-10-09T09:33:22.239Z,21.60
2023-10-09T09:35:29.063Z,21.60
2023-10-09T09:37:36.019Z,21.60
2023-10-09T09:39:54.865Z,21.50
2023-10-09T09:42:09.048Z,21.50
2023-10-09T09:44:18.585Z,21.50
2023-10-09T09:46:29.927Z,21.50
2023-10-09T09:48:34.232Z,21.50
2023-10-09T09:50:45.167Z,21.60
2023-10-09T09:52:51.518Z,21.60
2023-10-09T09:54:55.478Z,21.70
2023-10-09T09:57:01.898Z,21.70
2023-10-09T09:59:08.125Z,21.80
2023-10-09T10:01:17.853Z,21.80
2023-10-09T10:03:24.945Z,21.80
2023-10-09T10:05:31.198Z,21.80
2023-10-09T10:07:42.868Z,21.70
2023-10-09T10:09:47.268Z,21.70
2023-10-09T10:11:53.739Z,21.70
2023-10-09T10:14:02.913Z,21.80
2023-10-09T10:16:16.489Z,21.80
2023-10-09T10:18:22.525Z,21.80
2023-10-09T10:20:28.332Z,21.90
2023-10-09T10:22:34.338Z,22.00
2023-10-09T10:24:56.225Z,22.00
2023-10-09T10:27:25.568Z,22.10
2023-10-09T10:29:35.471Z,22.10
2023-10-09T10:32:08.347Z,22.10
2023-10-09T10:34:13.015Z,22.10
2023-10-09T10:36:26.411Z,22.20
2023-10-09T10:38:35.606Z,22.30
2023-10-09T10:40:47.566Z,22.40
2023-10-09T10:43:11.106Z,22.40
2023-10-09T10:45:35.835Z,22.50
2023-10-09T10:47:42.300Z,22.60
2023-10-09T10:49:50.772Z,22.60
2023-10-09T10:52:03.182Z,22.80
2023-10-09T10:54:25.118Z,23.00
2023-10-09T10:56:37.806Z,23.10
2023-10-09T10:58:49.175Z,23.40
2023-10-09T11:01:19.180Z,23.60
2023-10-09T11:03:31.746Z,23.80
2023-10-09T11:05:41.548Z,23.80
2023-10-09T11:07:50.906Z,23.90
2023-10-09T11:10:10.778Z,24.00
2023-10-09T11:12:23.427Z,23.90
2023-10-09T11:14:26.819Z,24.00
2023-10-09T11:16:45.534Z,24.20
2023-10-09T11:18:49.975Z,24.20
2023-10-09T11:21:00.351Z,24.40
2023-10-09T11:23:17.258Z,24.50
2023-10-09T11:25:20.645Z,24.60
2023-10-09T11:27:28.308Z,24.80
2023-10-09T11:29:33.459Z,24.80
2023-10-09T11:31:39.605Z,24.90
2023-10-09T11:33:46.596Z,25.00
2023-10-09T11:35:59.718Z,25.10
2023-10-09T11:38:22.504Z,25.20
2023-10-09T11:40:35.984Z,25.30
2023-10-09T11:42:39.824Z,25.40
2023-10-09T11:44:46.427Z,25.40
2023-10-09T11:47:16.148Z,25.30
2023-10-09T11:49:36.064Z,25.40
2023-10-09T11:51:49.158Z,25.50
2023-10-09T11:53:57.046Z,25.60
2023-10-09T11:56:00.187Z,25.60
2023-10-09T11:58:05.930Z,25.60
2023-10-09T12:00:26.190Z,25.60
2023-10-09T12:02:34.423Z,25.70
2023-10-09T12:04:46.512Z,25.70
2023-10-09T12:06:50.960Z,25.80
2023-10-09T12:09:01.359Z,25.90
2023-10-09T12:11:10.016Z,25.90
2023-10-09T12:13:17.118Z,26.00
2023-10-09T12:15:20.824Z,26.10
2023-10-09T12:17:27.921Z,26.20
2023-10-09T12:19:35.732Z,26.20
2023-10-09T12:21:44.415Z,26.20
2023-10-09T12:23:48.805Z,26.30
2023-10-09T12:25:58.479Z,26.20
2023-10-09T12:28:03.621Z,26.30
2023-10-09T12:30:09.357Z,26.30
2023-10-09T12:32:13.518Z,26.30
2023-10-09T12:34:18.419Z,26.30
2023-10-09T12:36:23.907Z,26.30
2023-10-09T12:38:34.911Z,26.30
2023-10-09T12:40:40.748Z,26.30
2023-10-09T12:42:43.699Z,26.30
2023-10-09T12:44:47.726Z,26.20
2023-10-09T12:46:53.922Z,26.30
2023-10-09T12:48:59.115Z,26.30
2023-10-09T12:51:07.722Z,26.30
2023-10-09T12:53:19.523Z,26.20
2023-10-09T12:55:33.842Z,26.30
2023-10-09T12:57:37.879Z,26.30
2023-10-09T12:59:45.230Z,26.40
2023-10-09T13:01:53.939Z,26.40
2023-10-09T13:03:58.182Z,26.40
2023-10-09T13:06:05.157Z,26.40
2023-10-09T13:08:13.195Z,26.40
2023-10-09T13:10:18.743Z,26.40
2023-10-09T13:12:23.297Z,26.40
2023-10-09T13:14:27.651Z,26.40
2023-10-09T13:16:33.087Z,26.40
2023-10-09T13:18:41.484Z,26.40
2023-10-09T13:20:46.776Z,26.40
2023-10-09T13:22:54.565Z,26.50
2023-10-09T13:25:05.942Z,26.40
2023-10-09T13:27:12.847Z,26.50
2023-10-09T13:29:26.051Z,26.50
2023-10-09T13:31:33.652Z,26.60
2023-10-09T13:33:38.481Z,26.70
2023-10-09T13:35:51.021Z,26.60
2023-10-09T13:37:58.541Z,26.70
2023-10-09T13:40:10.845Z,26.70
2023-10-09T13:42:17.577Z,26.70
2023-10-09T13:44:22.875Z,26.60
2023-10-09T13:46:26.951Z,26.70
2023-10-09T13:48:38.857Z,26.80
2023-10-09T13:50:44.311Z,26.70
2023-10-09T13:52:48.218Z,26.90
2023-10-09T13:54:52.420Z,26.90
2023-10-09T13:56:59.772Z,26.90
2023-10-09T13:59:12.291Z,26.90
2023-10-09T14:01:28.512Z,26.80
2023-10-09T14:03:34.167Z,26.80
2023-10-09T14:05:53.402Z,26.80
2023-10-09T14:08:01.887Z,26.80
2023-10-09T14:10:18.827Z,26.80
2023-10-09T14:12:23.322Z,26.70
2023-10-09T14:14:28.705Z,26.70
2023-10-09T14:16:34.778Z,26.70
2023-10-09T14:18:38.869Z,26.70
2023-10-09T14:20:42.905Z,26.70
2023-10-09T14:22:47.711Z,26.70
2023-10-09T14:24:56.930Z,26.80
2023-10-09T14:27:01.249Z,26.80
2023-10-09T14:29:08.304Z,26.90
2023-10-09T14:31:16.506Z,27.00
2023-10-09T14:33:29.508Z,27.00
2023-10-09T14:35:36.673Z,27.10
2023-10-09T14:37:42.868Z,27.10
2023-10-09T14:39:49.995Z,27.20
2023-10-09T14:41:56.257Z,27.20
2023-10-09T14:44:03.772Z,27.20
2023-10-09T14:46:12.274Z,27.20
2023-10-09T14:48:19.707Z,27.10
2023-10-09T14:50:24.904Z,27.00
2023-10-09T14:52:28.929Z,26.80
2023-10-09T14:54:31.803Z,26.60
2023-10-09T14:56:40.244Z,26.50
2023-10-09T14:58:43.021Z,26.40
2023-10-09T15:00:49.613Z,26.40
2023-10-09T15:02:54.486Z,26.50
2023-10-09T15:05:00.665Z,26.50
2023-10-09T15:07:08.430Z,26.60
2023-10-09T15:09:23.297Z,26.60
2023-10-09T15:11:30.094Z,26.80
2023-10-09T15:13:41.074Z,26.70
2023-10-09T15:15:44.434Z,26.70
2023-10-09T15:17:50.241Z,26.70
2023-10-09T15:19:58.430Z,26.70
2023-10-09T15:22:09.916Z,26.80
2023-10-09T15:24:19.464Z,26.70
2023-10-09T15:26:26.544Z,26.80
2023-10-09T15:28:33.952Z,26.80
2023-10-09T15:30:39.454Z,26.90
2023-10-09T15:32:46.161Z,26.90
2023-10-09T15:34:50.567Z,26.80
2023-10-09T15:36:57.707Z,26.90
2023-10-09T15:39:05.033Z,26.90
2023-10-09T15:41:08.407Z,26.90
2023-10-09T15:43:14.876Z,27.00
2023-10-09T15:45:19.126Z,27.00
2023-10-09T15:47:24.630Z,26.90
2023-10-09T15:49:31.490Z,26.90
2023-10-09T15:51:37.171Z,26.80
2023-10-09T15:53:42.482Z,26.80
2023-10-09T15:55:53.335Z,26.80
2023-10-09T15:57:58.854Z,26.70
2023-10-09T16:00:03.406Z,26.70
2023-10-09T16:02:11.739Z,26.70
2023-10-09T16:04:17.546Z,26.60
2023-10-09T16:06:21.845Z,26.60
2023-10-09T16:08:25.319Z,26.50
2023-10-09T16:10:29.727Z,26.40
2023-10-09T16:12:35.170Z,26.40
2023-10-09T16:14:40.177Z,26.30
2023-10-09T16:16:45.824Z,26.30
2023-10-09T16:18:50.567Z,26.20
2023-10-09T16:20:55.688Z,26.10
2023-10-09T16:23:00.583Z,26.10
2023-10-09T16:25:11.185Z,26.00
2023-10-09T16:27:16.004Z,26.00
2023-10-09T16:29:24.639Z,26.00
2023-10-09T16:31:29.015Z,25.90
2023-10-09T16:33:33.220Z,25.90
2023-10-09T16:35:41.426Z,25.90
2023-10-09T16:37:45.963Z,25.80
2023-10-09T16:39:51.096Z,25.80
2023-10-09T16:41:58.556Z,25.80
2023-10-09T16:44:02.767Z,25.80
2023-10-09T16:46:10.685Z,25.70
2023-10-09T16:48:17.079Z,25.70
2023-10-09T16:50:26.995Z,25.70
2023-10-09T16:52:31.704Z,25.60
2023-10-09T16:54:38.447Z,25.50
2023-10-09T16:56:43.991Z,25.60
2023-10-09T16:58:48.927Z,25.50
2023-10-09T17:00:58.123Z,25.50
2023-10-09T17:03:06.263Z,25.50
2023-10-09T17:05:15.044Z,25.50
2023-10-09T17:07:20.129Z,25.50
2023-10-09T17:09:25.706Z,25.30
2023-10-09T17:11:29.913Z,25.40
2023-10-09T17:13:35.639Z,25.30
2023-10-09T17:15:42.293Z,25.30
2023-10-09T17:17:52.548Z,25.20
2023-10-09T17:19:59.563Z,25.30
2023-10-09T17:22:12.475Z,25.20
2023-10-09T17:24:21.964Z,25.20
2023-10-09T17:26:26.563Z,25.20
2023-10-09T17:28:31.713Z,25.20
2023-10-09T17:30:35.773Z,25.10
2023-10-09T17:32:40.456Z,25.10
2023-10-09T17:34:45.317Z,25.00
2023-10-09T17:36:51.126Z,25.00
2023-10-09T17:39:01.659Z,24.90
2023-10-09T17:41:06.619Z,24.90
2023-10-09T17:43:11.190Z,24.90
2023-10-09T17:45:23.862Z,24.90
2023-10-09T17:47:28.899Z,24.80
2023-10-09T17:49:33.116Z,24.80
2023-10-09T17:51:37.732Z,24.80
2023-10-09T17:53:44.630Z,24.70
2023-10-09T17:55:48.939Z,24.70
2023-10-09T17:57:52.362Z,24.70
2023-10-09T17:59:57.812Z,24.60
2023-10-09T18:02:03.778Z,24.50
2023-10-09T18:04:08.298Z,24.50
2023-10-09T18:06:14.143Z,24.50
2023-10-09T18:08:19.508Z,24.50
2023-10-09T18:10:25.192Z,24.40
2023-10-09T18:12:29.848Z,24.40
2023-10-09T18:14:33.778Z,24.30
2023-10-09T18:16:39.253Z,24.30
2023-10-09T18:18:42.137Z,24.20
2023-10-09T18:20:46.112Z,24.20
2023-10-09T18:22:50.186Z,24.20
2023-10-09T18:24:54.366Z,24.10
2023-10-09T18:27:00.108Z,24.10
2023-10-09T18:29:06.596Z,24.10
2023-10-09T18:31:15.277Z,24.00
2023-10-09T18:33:19.091Z,24.00
2023-10-09T18:35:23.249Z,23.90
2023-10-09T18:37:27.605Z,23.90
2023-10-09T18:39:32.313Z,23.80
2023-10-09T18:41:36.325Z,23.90
2023-10-09T18:43:41.439Z,23.90
2023-10-09T18:45:45.572Z,23.80
2023-10-09T18:47:49.935Z,23.80
2023-10-09T18:49:53.815Z,23.80
2023-10-09T18:51:59.302Z,23.90
2023-10-09T18:54:07.321Z,23.90
2023-10-09T18:56:15.555Z,23.90
2023-10-09T18:58:20.303Z,23.80
2023-10-09T19:00:32.238Z,23.80
2023-10-09T19:02:36.969Z,23.80
2023-10-09T19:04:40.897Z,23.80
2023-10-09T19:06:47.277Z,23.80
2023-10-09T19:08:51.679Z,23.80
2023-10-09T19:11:02.197Z,23.80
2023-10-09T19:13:08.780Z,23.80
2023-10-09T19:15:15.071Z,23.80
2023-10-09T19:17:22.884Z,23.80
2023-10-09T19:19:27.644Z,23.90
2023-10-09T19:21:33.605Z,23.90
2023-10-09T19:23:38.607Z,23.90
2023-10-09T19:25:44.511Z,23.90
2023-10-09T19:27:51.825Z,24.00
2023-10-09T19:29:56.696Z,24.00
2023-10-09T19:32:00.851Z,24.00
2023-10-09T19:34:08.916Z,24.00
2023-10-09T19:36:15.935Z,24.00
2023-10-09T19:38:21.089Z,24.00
2023-10-09T19:40:30.892Z,23.90
2023-10-09T19:42:38.108Z,23.90
2023-10-09T19:44:46.031Z,23.90
2023-10-09T19:46:53.542Z,23.90
2023-10-09T19:48:58.081Z,23.90
2023-10-09T19:51:04.691Z,24.00
2023-10-09T19:53:08.892Z,24.00
2023-10-09T19:55:13.066Z,24.10
2023-10-09T19:57:18.947Z,23.90
2023-10-09T19:59:23.091Z,23.90
2023-10-09T20:01:28.035Z,23.90
2023-10-09T20:03:35.527Z,23.90
2023-10-09T20:05:42.245Z,23.80
2023-10-09T20:07:49.971Z,23.70
2023-10-09T20:09:59.470Z,23.60
2023-10-09T20:12:04.191Z,23.50
2023-10-09T20:14:07.003Z,23.20
2023-10-09T20:16:11.046Z,23.10
2023-10-09T20:18:15.322Z,23.00
2023-10-09T20:20:23.960Z,23.10
2023-10-09T20:22:28.973Z,23.30
2023-10-09T20:24:34.519Z,23.20
2023-10-09T20:26:43.447Z,23.20
2023-10-09T20:28:49.232Z,23.30
2023-10-09T20:30:55.130Z,23.30
2023-10-09T20:32:58.956Z,23.30
2023-10-09T20:35:03.099Z,23.10
2023-10-09T20:37:07.392Z,23.10
2023-10-09T20:39:12.210Z,23.10
2023-10-09T20:41:17.698Z,23.10
2023-10-09T20:43:21.884Z,23.00
2023-10-09T20:45:25.735Z,23.00
2023-10-09T20:47:34.872Z,22.90
2023-10-09T20:49:38.616Z,22.90
2023-10-09T20:51:56.699Z,22.80
2023-10-09T20:54:02.778Z,22.70
2023-10-09T20:56:07.728Z,22.60
2023-10-09T20:58:13.125Z,22.60
2023-10-09T21:00:22.610Z,22.60
2023-10-09T21:02:26.577Z,22.50
2023-10-09T21:04:30.384Z,22.40
2023-10-09T21:06:34.482Z,22.40
2023-10-09T21:08:39.416Z,22.30
2023-10-09T21:10:45.232Z,22.30
2023-10-09T21:12:50.863Z,22.20
2023-10-09T21:14:57.073Z,22.20
2023-10-09T21:17:01.279Z,22.20
2023-10-09T21:19:05.348Z,22.20
2023-10-09T21:21:11.168Z,22.20
2023-10-09T21:23:15.224Z,22.10
2023-10-09T21:25:21.856Z,22.10
2023-10-09T21:27:26.320Z,22.00
2023-10-09T21:29:30.403Z,22.00
2023-10-09T21:31:36.067Z,21.90
2023-10-09T21:33:40.154Z,21.90
2023-10-09T21:35:44.866Z,21.90
2023-10-09T21:37:50.449Z,21.90
2023-10-09T21:39:54.610Z,21.70
2023-10-09T21:41:58.614Z,21.80
2023-10-09T21:44:02.643Z,21.80
2023-10-09T21:46:09.303Z,21.90
2023-10-09T21:48:17.568Z,21.90
2023-10-09T21:50:23.195Z,22.00
2023-10-09T21:52:27.701Z,21.90
2023-10-09T21:54:31.769Z,21.90
2023-10-09T21:56:39.373Z,21.80
2023-10-09T21:58:43.553Z,21.70
2023-10-09T22:00:48.445Z,21.70
2023-10-09T22:02:51.625Z,21.70
2023-10-09T22:04:57.818Z,21.60
2023-10-09T22:07:02.108Z,21.60
2023-10-09T22:09:09.122Z,21.50
2023-10-09T22:11:13.102Z,21.40
2023-10-09T22:13:20.035Z,21.40
2023-10-09T22:15:23.756Z,21.30
2023-10-09T22:17:27.832Z,21.20
2023-10-09T22:19:36.715Z,21.10
2023-10-09T22:21:42.730Z,21.10
2023-10-09T22:23:54.294Z,21.00
2023-10-09T22:26:01.966Z,20.90
2023-10-09T22:28:10.687Z,20.90
2023-10-09T22:30:14.751Z,20.90
2023-10-09T22:32:20.035Z,20.80
2023-10-09T22:34:23.844Z,20.90
2023-10-09T22:36:46.860Z,20.90
2023-10-09T22:38:56.484Z,20.90
2023-10-09T22:41:07.489Z,20.90
2023-10-09T22:43:12.418Z,20.90
2023-10-09T22:45:16.159Z,20.80
2023-10-09T22:47:24.393Z,20.80
2023-10-09T22:49:33.739Z,20.80
2023-10-09T22:51:42.697Z,20.80
2023-10-09T22:53:48.444Z,20.80
2023-10-09T22:55:54.281Z,20.80
2023-10-09T22:57:58.452Z,20.80
2023-10-09T23:00:02.041Z,20.80
2023-10-09T23:02:05.484Z,20.80
2023-10-09T23:04:17.106Z,20.80
2023-10-09T23:06:34.745Z,20.80
2023-10-09T23:08:38.676Z,20.80
2023-10-09T23:10:53.136Z,20.80
2023-10-09T23:13:15.982Z,20.80
2023-10-09T23:15:35.973Z,20.80
2023-10-09T23:17:49.564Z,20.80
2023-10-09T23:19:57.747Z,20.70
2023-10-09T23:22:09.979Z,20.60
2023-10-09T23:24:27.116Z,20.60
2023-10-09T23:26:33.946Z,20.50
2023-10-09T23:28:40.312Z,20.40
2023-10-09T23:30:45.296Z,20.40
2023-10-09T23:32:53.315Z,20.30
2023-10-09T23:34:57.093Z,20.20
2023-10-09T23:37:03.730Z,20.20
2023-10-09T23:39:13.963Z,20.20
2023-10-09T23:41:22.668Z,20.10
2023-10-09T23:43:29.647Z,20.10
2023-10-09T23:45:34.721Z,20.10
2023-10-09T23:47:42.456Z,20.00
2023-10-09T23:49:47.262Z,20.00
2023-10-09T23:51:55.516Z,20.00
2023-10-09T23:54:02.982Z,20.00
2023-10-09T23:56:10.753Z,19.90
2023-10-09T23:58:18.323Z,19.90
